KJWG

Watonga Regional Airport

Watonga, Oklahoma, USA
METAR KJWG 141635Z AUTO 34023G28KT 10SM CLR 06/M02 A3021 RMK AO2 T00601024
Observed Flight Rules
Dec-14 @ 16:35 UTC (28 minutes ago) Visual Flight Rules
Wind Visibility Clouds
340° at 23 knots
 Gusting to 28 knots
10 miles
  • Clear skies
Temperatures Readings
Current 6°C / 43°F
Dewpoint -2°C / 28°F
Humidity 57%
Altimeter 30.21" Hg
Pressure 1023 hPa
Elevation 472
METAR KJWG 141635Z AUTO 34023G28KT 10SM CLR 06/M02 A3021 RMK AO2 T00601024
Observed Flight Rules
Dec-14 @ 16:35 UTC
(28 minutes ago)
VFR
Wind Visibility
340° at 23 knots
 Gusting to 28 knots
10 miles
Clouds
  • Clear skies
Temperature Dewpoint
6°C / 43°F -2°C / 28°F
Humidity Altimeter Pressure
57% 30.21" Hg 1023 hPa